sensor_id;sensor_type;location;lat;lon;timestamp;P1;durP1;ratioP1;P2;durP2;ratioP2
26086;SDS011;13851;43.434;28.338;2022-10-17T00:00:59;5.95;;;3.72;;
26086;SDS011;13851;43.434;28.338;2022-10-17T00:03:25;5.28;;;3.90;;
26086;SDS011;13851;43.434;28.338;2022-10-17T00:05:51;6.88;;;4.05;;
26086;SDS011;13851;43.434;28.338;2022-10-17T00:08:16;8.75;;;5.03;;
26086;SDS011;13851;43.434;28.338;2022-10-17T00:10:43;7.00;;;4.90;;
26086;SDS011;13851;43.434;28.338;2022-10-17T00:13:09;9.05;;;5.32;;
26086;SDS011;13851;43.434;28.338;2022-10-17T00:15:35;8.40;;;5.63;;
26086;SDS011;13851;43.434;28.338;2022-10-17T00:18:00;7.60;;;5.43;;
26086;SDS011;13851;43.434;28.338;2022-10-17T00:20:26;8.48;;;5.45;;
26086;SDS011;13851;43.434;28.338;2022-10-17T00:22:54;11.43;;;5.80;;
26086;SDS011;13851;43.434;28.338;2022-10-17T00:25:20;6.75;;;4.97;;
26086;SDS011;13851;43.434;28.338;2022-10-17T00:27:46;9.90;;;4.88;;
26086;SDS011;13851;43.434;28.338;2022-10-17T00:30:12;9.80;;;5.50;;
26086;SDS011;13851;43.434;28.338;2022-10-17T00:32:39;6.72;;;5.22;;
26086;SDS011;13851;43.434;28.338;2022-10-17T00:35:05;10.27;;;5.38;;
26086;SDS011;13851;43.434;28.338;2022-10-17T00:37:31;7.85;;;5.40;;
26086;SDS011;13851;43.434;28.338;2022-10-17T00:39:57;7.78;;;5.47;;
26086;SDS011;13851;43.434;28.338;2022-10-17T00:42:23;5.90;;;5.10;;
26086;SDS011;13851;43.434;28.338;2022-10-17T00:47:16;8.25;;;5.00;;
26086;SDS011;13851;43.434;28.338;2022-10-17T00:49:44;8.60;;;5.63;;
26086;SDS011;13851;43.434;28.338;2022-10-17T00:52:15;9.02;;;5.18;;
26086;SDS011;13851;43.434;28.338;2022-10-17T00:54:48;6.40;;;4.82;;
26086;SDS011;13851;43.434;28.338;2022-10-17T00:57:18;8.32;;;5.40;;
26086;SDS011;13851;43.434;28.338;2022-10-17T00:59:46;7.80;;;5.22;;
26086;SDS011;13851;43.434;28.338;2022-10-17T01:04:43;6.82;;;5.10;;
26086;SDS011;13851;43.434;28.338;2022-10-17T01:07:10;10.63;;;5.40;;
26086;SDS011;13851;43.434;28.338;2022-10-17T01:09:36;6.05;;;4.97;;
26086;SDS011;13851;43.434;28.338;2022-10-17T01:26:33;8.75;;;5.03;;
26086;SDS011;13851;43.434;28.338;2022-10-17T01:32:17;6.97;;;4.80;;
26086;SDS011;13851;43.434;28.338;2022-10-17T01:34:53;8.27;;;4.60;;
26086;SDS011;13851;43.434;28.338;2022-10-17T01:37:29;6.93;;;4.80;;
26086;SDS011;13851;43.434;28.338;2022-10-17T01:42:58;6.90;;;4.28;;
26086;SDS011;13851;43.434;28.338;2022-10-17T01:45:39;6.15;;;4.53;;
26086;SDS011;13851;43.434;28.338;2022-10-17T01:48:17;8.32;;;4.57;;
26086;SDS011;13851;43.434;28.338;2022-10-17T01:50:52;6.15;;;4.28;;
26086;SDS011;13851;43.434;28.338;2022-10-17T01:53:41;7.20;;;4.72;;
26086;SDS011;13851;43.434;28.338;2022-10-17T01:56:14;9.00;;;4.60;;
26086;SDS011;13851;43.434;28.338;2022-10-17T01:58:43;6.68;;;4.65;;
26086;SDS011;13851;43.434;28.338;2022-10-17T02:01:13;9.15;;;4.47;;
26086;SDS011;13851;43.434;28.338;2022-10-17T02:03:39;6.53;;;4.20;;
26086;SDS011;13851;43.434;28.338;2022-10-17T02:06:07;6.57;;;4.25;;
26086;SDS011;13851;43.434;28.338;2022-10-17T02:08:41;6.63;;;4.55;;
26086;SDS011;13851;43.434;28.338;2022-10-17T02:11:21;9.30;;;4.43;;
26086;SDS011;13851;43.434;28.338;2022-10-17T02:19:06;7.28;;;4.93;;
26086;SDS011;13851;43.434;28.338;2022-10-17T02:30:05;5.70;;;4.18;;
26086;SDS011;13851;43.434;28.338;2022-10-17T02:32:34;8.77;;;4.97;;
26086;SDS011;13851;43.434;28.338;2022-10-17T02:35:04;9.77;;;5.30;;
26086;SDS011;13851;43.434;28.338;2022-10-17T02:37:34;6.75;;;4.60;;
26086;SDS011;13851;43.434;28.338;2022-10-17T02:40:00;5.75;;;4.03;;
26086;SDS011;13851;43.434;28.338;2022-10-17T02:42:27;6.05;;;4.38;;
26086;SDS011;13851;43.434;28.338;2022-10-17T04:28:38;6.72;;;4.25;;
26086;SDS011;13851;43.434;28.338;2022-10-17T04:54:12;7.15;;;4.60;;
26086;SDS011;13851;43.434;28.338;2022-10-17T04:56:39;11.23;;;5.95;;
26086;SDS011;13851;43.434;28.338;2022-10-17T04:59:05;12.07;;;5.72;;
26086;SDS011;13851;43.434;28.338;2022-10-17T05:01:31;11.65;;;5.00;;
26086;SDS011;13851;43.434;28.338;2022-10-17T05:03:56;6.57;;;4.22;;
26086;SDS011;13851;43.434;28.338;2022-10-17T05:06:23;10.02;;;5.03;;
26086;SDS011;13851;43.434;28.338;2022-10-17T05:08:49;6.60;;;4.38;;
26086;SDS011;13851;43.434;28.338;2022-10-17T05:11:19;5.68;;;3.72;;
26086;SDS011;13851;43.434;28.338;2022-10-17T05:13:54;6.93;;;4.13;;
26086;SDS011;13851;43.434;28.338;2022-10-17T05:16:27;7.55;;;4.43;;
26086;SDS011;13851;43.434;28.338;2022-10-17T05:18:54;9.75;;;4.43;;
26086;SDS011;13851;43.434;28.338;2022-10-17T05:21:21;10.88;;;4.40;;
26086;SDS011;13851;43.434;28.338;2022-10-17T05:23:48;8.95;;;4.53;;
26086;SDS011;13851;43.434;28.338;2022-10-17T05:26:17;6.72;;;3.75;;
26086;SDS011;13851;43.434;28.338;2022-10-17T05:28:45;9.57;;;4.47;;
26086;SDS011;13851;43.434;28.338;2022-10-17T05:31:10;7.75;;;3.80;;
26086;SDS011;13851;43.434;28.338;2022-10-17T05:33:37;7.38;;;4.28;;
26086;SDS011;13851;43.434;28.338;2022-10-17T05:36:03;9.23;;;4.47;;
26086;SDS011;13851;43.434;28.338;2022-10-17T05:38:30;7.20;;;4.55;;
26086;SDS011;13851;43.434;28.338;2022-10-17T05:40:59;9.15;;;4.40;;
26086;SDS011;13851;43.434;28.338;2022-10-17T05:43:26;8.63;;;4.47;;
26086;SDS011;13851;43.434;28.338;2022-10-17T05:45:51;7.95;;;4.63;;
26086;SDS011;13851;43.434;28.338;2022-10-17T05:48:18;9.45;;;4.50;;
26086;SDS011;13851;43.434;28.338;2022-10-17T05:50:43;13.10;;;4.50;;
26086;SDS011;13851;43.434;28.338;2022-10-17T05:53:09;9.88;;;4.70;;
26086;SDS011;13851;43.434;28.338;2022-10-17T05:55:34;9.00;;;4.85;;
26086;SDS011;13851;43.434;28.338;2022-10-17T05:58:00;9.13;;;4.55;;
26086;SDS011;13851;43.434;28.338;2022-10-17T06:00:26;11.93;;;5.53;;
26086;SDS011;13851;43.434;28.338;2022-10-17T06:02:51;8.07;;;4.57;;
26086;SDS011;13851;43.434;28.338;2022-10-17T06:05:17;10.05;;;4.43;;
26086;SDS011;13851;43.434;28.338;2022-10-17T06:07:43;9.48;;;4.40;;
26086;SDS011;13851;43.434;28.338;2022-10-17T06:10:13;8.80;;;4.68;;
26086;SDS011;13851;43.434;28.338;2022-10-17T06:12:40;8.82;;;5.38;;
26086;SDS011;13851;43.434;28.338;2022-10-17T06:15:07;9.95;;;5.53;;
26086;SDS011;13851;43.434;28.338;2022-10-17T06:17:34;11.07;;;5.03;;
26086;SDS011;13851;43.434;28.338;2022-10-17T06:19:59;7.47;;;4.50;;
26086;SDS011;13851;43.434;28.338;2022-10-17T06:22:25;10.57;;;5.13;;
26086;SDS011;13851;43.434;28.338;2022-10-17T06:24:50;8.13;;;4.70;;
26086;SDS011;13851;43.434;28.338;2022-10-17T06:27:17;9.25;;;4.63;;
26086;SDS011;13851;43.434;28.338;2022-10-17T06:29:43;9.45;;;5.50;;
26086;SDS011;13851;43.434;28.338;2022-10-17T06:32:09;13.73;;;6.95;;
26086;SDS011;13851;43.434;28.338;2022-10-17T06:34:35;7.38;;;4.82;;
26086;SDS011;13851;43.434;28.338;2022-10-17T06:37:00;11.00;;;5.88;;
26086;SDS011;13851;43.434;28.338;2022-10-17T06:39:26;11.27;;;5.78;;
26086;SDS011;13851;43.434;28.338;2022-10-17T06:41:58;8.45;;;5.30;;
26086;SDS011;13851;43.434;28.338;2022-10-17T06:44:24;9.88;;;5.15;;
26086;SDS011;13851;43.434;28.338;2022-10-17T06:46:54;10.00;;;5.53;;
26086;SDS011;13851;43.434;28.338;2022-10-17T06:49:20;8.20;;;5.00;;
26086;SDS011;13851;43.434;28.338;2022-10-17T06:51:46;9.75;;;5.93;;
26086;SDS011;13851;43.434;28.338;2022-10-17T06:54:14;9.55;;;5.22;;
26086;SDS011;13851;43.434;28.338;2022-10-17T06:56:40;13.25;;;5.82;;
26086;SDS011;13851;43.434;28.338;2022-10-17T06:59:05;11.88;;;5.55;;
26086;SDS011;13851;43.434;28.338;2022-10-17T07:01:31;9.93;;;5.68;;
26086;SDS011;13851;43.434;28.338;2022-10-17T07:03:58;11.25;;;5.88;;
26086;SDS011;13851;43.434;28.338;2022-10-17T07:06:24;11.52;;;5.63;;
26086;SDS011;13851;43.434;28.338;2022-10-17T07:08:49;7.07;;;4.68;;
26086;SDS011;13851;43.434;28.338;2022-10-17T07:11:16;9.80;;;5.18;;
26086;SDS011;13851;43.434;28.338;2022-10-17T07:13:43;7.60;;;4.65;;
26086;SDS011;13851;43.434;28.338;2022-10-17T07:16:09;11.95;;;5.07;;
26086;SDS011;13851;43.434;28.338;2022-10-17T07:18:35;14.18;;;5.85;;
26086;SDS011;13851;43.434;28.338;2022-10-17T07:21:01;9.32;;;5.72;;
26086;SDS011;13851;43.434;28.338;2022-10-17T07:23:27;10.52;;;5.68;;
26086;SDS011;13851;43.434;28.338;2022-10-17T07:25:58;9.82;;;5.88;;
26086;SDS011;13851;43.434;28.338;2022-10-17T07:28:27;6.57;;;5.10;;
26086;SDS011;13851;43.434;28.338;2022-10-17T07:30:53;8.65;;;5.10;;
26086;SDS011;13851;43.434;28.338;2022-10-17T07:33:19;13.32;;;5.20;;
26086;SDS011;13851;43.434;28.338;2022-10-17T07:35:44;14.25;;;4.80;;
26086;SDS011;13851;43.434;28.338;2022-10-17T07:38:10;12.13;;;4.95;;
26086;SDS011;13851;43.434;28.338;2022-10-17T07:40:35;8.55;;;4.55;;
26086;SDS011;13851;43.434;28.338;2022-10-17T07:43:01;10.00;;;4.32;;
26086;SDS011;13851;43.434;28.338;2022-10-17T07:45:26;7.43;;;4.03;;
26086;SDS011;13851;43.434;28.338;2022-10-17T07:47:58;11.38;;;4.60;;
26086;SDS011;13851;43.434;28.338;2022-10-17T07:50:24;9.88;;;4.25;;
26086;SDS011;13851;43.434;28.338;2022-10-17T07:52:49;12.77;;;5.32;;
26086;SDS011;13851;43.434;28.338;2022-10-17T07:55:15;9.88;;;4.60;;
26086;SDS011;13851;43.434;28.338;2022-10-17T07:57:43;8.15;;;4.60;;
26086;SDS011;13851;43.434;28.338;2022-10-17T08:00:09;10.50;;;4.55;;
26086;SDS011;13851;43.434;28.338;2022-10-17T08:02:35;6.63;;;4.32;;
26086;SDS011;13851;43.434;28.338;2022-10-17T08:05:00;6.32;;;4.53;;
26086;SDS011;13851;43.434;28.338;2022-10-17T08:07:26;12.38;;;4.75;;
26086;SDS011;13851;43.434;28.338;2022-10-17T08:09:51;7.80;;;4.30;;
26086;SDS011;13851;43.434;28.338;2022-10-17T08:12:16;9.68;;;4.20;;
26086;SDS011;13851;43.434;28.338;2022-10-17T08:14:42;8.13;;;4.28;;
26086;SDS011;13851;43.434;28.338;2022-10-17T08:17:08;6.57;;;3.92;;
26086;SDS011;13851;43.434;28.338;2022-10-17T08:19:37;10.82;;;3.67;;
26086;SDS011;13851;43.434;28.338;2022-10-17T08:22:03;9.05;;;3.58;;
26086;SDS011;13851;43.434;28.338;2022-10-17T08:24:28;14.25;;;4.80;;
26086;SDS011;13851;43.434;28.338;2022-10-17T08:26:54;10.85;;;4.10;;
26086;SDS011;13851;43.434;28.338;2022-10-17T08:29:22;6.40;;;3.50;;
26086;SDS011;13851;43.434;28.338;2022-10-17T08:31:47;8.55;;;3.67;;
26086;SDS011;13851;43.434;28.338;2022-10-17T08:34:13;5.65;;;3.38;;
26086;SDS011;13851;43.434;28.338;2022-10-17T08:36:40;5.93;;;3.67;;
26086;SDS011;13851;43.434;28.338;2022-10-17T08:39:05;4.97;;;3.60;;
26086;SDS011;13851;43.434;28.338;2022-10-17T08:46:43;5.30;;;3.25;;
26086;SDS011;13851;43.434;28.338;2022-10-17T08:49:14;5.72;;;3.08;;
26086;SDS011;13851;43.434;28.338;2022-10-17T08:51:54;6.25;;;3.55;;
26086;SDS011;13851;43.434;28.338;2022-10-17T08:54:39;5.47;;;3.38;;
26086;SDS011;13851;43.434;28.338;2022-10-17T08:57:14;6.55;;;3.20;;
26086;SDS011;13851;43.434;28.338;2022-10-17T08:59:41;8.00;;;3.75;;
26086;SDS011;13851;43.434;28.338;2022-10-17T09:02:28;8.15;;;4.28;;
26086;SDS011;13851;43.434;28.338;2022-10-17T09:07:46;8.88;;;4.35;;
26086;SDS011;13851;43.434;28.338;2022-10-17T09:10:50;7.75;;;3.58;;
26086;SDS011;13851;43.434;28.338;2022-10-17T09:13:31;7.55;;;3.60;;
26086;SDS011;13851;43.434;28.338;2022-10-17T09:18:32;7.07;;;3.00;;
26086;SDS011;13851;43.434;28.338;2022-10-17T09:23:50;7.85;;;3.30;;
26086;SDS011;13851;43.434;28.338;2022-10-17T09:26:21;6.03;;;3.10;;
26086;SDS011;13851;43.434;28.338;2022-10-17T09:28:52;10.52;;;3.35;;
26086;SDS011;13851;43.434;28.338;2022-10-17T09:31:24;7.15;;;3.30;;
26086;SDS011;13851;43.434;28.338;2022-10-17T09:33:53;4.53;;;2.88;;
26086;SDS011;13851;43.434;28.338;2022-10-17T09:36:42;6.70;;;3.25;;
26086;SDS011;13851;43.434;28.338;2022-10-17T09:39:12;3.70;;;2.90;;
26086;SDS011;13851;43.434;28.338;2022-10-17T09:41:52;7.95;;;3.13;;
26086;SDS011;13851;43.434;28.338;2022-10-17T09:44:38;7.25;;;2.95;;
26086;SDS011;13851;43.434;28.338;2022-10-17T09:47:31;6.20;;;3.45;;
26086;SDS011;13851;43.434;28.338;2022-10-17T09:50:04;8.25;;;4.75;;
26086;SDS011;13851;43.434;28.338;2022-10-17T09:52:39;6.45;;;4.10;;
26086;SDS011;13851;43.434;28.338;2022-10-17T10:03:19;6.63;;;3.00;;
26086;SDS011;13851;43.434;28.338;2022-10-17T10:06:02;6.30;;;3.08;;
26086;SDS011;13851;43.434;28.338;2022-10-17T10:08:35;7.20;;;3.25;;
26086;SDS011;13851;43.434;28.338;2022-10-17T10:11:13;3.25;;;2.60;;
26086;SDS011;13851;43.434;28.338;2022-10-17T10:13:38;4.13;;;3.53;;
26086;SDS011;13851;43.434;28.338;2022-10-17T10:16:15;10.45;;;3.30;;
26086;SDS011;13851;43.434;28.338;2022-10-17T10:18:46;5.82;;;3.42;;
26086;SDS011;13851;43.434;28.338;2022-10-17T10:21:20;7.97;;;2.88;;
26086;SDS011;13851;43.434;28.338;2022-10-17T10:26:45;3.97;;;2.75;;
26086;SDS011;13851;43.434;28.338;2022-10-17T10:31:55;5.32;;;3.03;;
26086;SDS011;13851;43.434;28.338;2022-10-17T10:34:31;5.93;;;3.38;;
26086;SDS011;13851;43.434;28.338;2022-10-17T10:42:02;5.78;;;2.80;;
26086;SDS011;13851;43.434;28.338;2022-10-17T10:44:31;6.90;;;2.72;;
26086;SDS011;13851;43.434;28.338;2022-10-17T10:49:44;5.85;;;3.53;;
26086;SDS011;13851;43.434;28.338;2022-10-17T10:52:28;4.45;;;2.80;;
26086;SDS011;13851;43.434;28.338;2022-10-17T10:55:21;4.55;;;2.75;;
26086;SDS011;13851;43.434;28.338;2022-10-17T10:57:46;5.13;;;3.47;;
26086;SDS011;13851;43.434;28.338;2022-10-17T11:00:15;5.63;;;2.97;;
26086;SDS011;13851;43.434;28.338;2022-10-17T11:02:51;8.15;;;2.90;;
26086;SDS011;13851;43.434;28.338;2022-10-17T11:05:33;3.15;;;2.80;;
26086;SDS011;13851;43.434;28.338;2022-10-17T11:13:26;8.15;;;3.25;;
26086;SDS011;13851;43.434;28.338;2022-10-17T11:21:47;5.45;;;3.50;;
26086;SDS011;13851;43.434;28.338;2022-10-17T11:24:49;5.45;;;3.35;;
26086;SDS011;13851;43.434;28.338;2022-10-17T11:27:21;5.43;;;3.60;;
26086;SDS011;13851;43.434;28.338;2022-10-17T11:29:48;7.97;;;3.47;;
26086;SDS011;13851;43.434;28.338;2022-10-17T11:35:18;4.00;;;3.17;;
26086;SDS011;13851;43.434;28.338;2022-10-17T11:40:51;5.65;;;3.58;;
26086;SDS011;13851;43.434;28.338;2022-10-17T11:43:21;4.60;;;3.30;;
26086;SDS011;13851;43.434;28.338;2022-10-17T11:46:03;4.63;;;3.20;;
26086;SDS011;13851;43.434;28.338;2022-10-17T11:48:40;4.40;;;3.33;;
26086;SDS011;13851;43.434;28.338;2022-10-17T11:51:13;5.70;;;3.50;;
26086;SDS011;13851;43.434;28.338;2022-10-17T11:56:16;3.60;;;2.72;;
26086;SDS011;13851;43.434;28.338;2022-10-17T12:07:29;6.40;;;2.95;;
26086;SDS011;13851;43.434;28.338;2022-10-17T12:12:27;7.10;;;2.60;;
26086;SDS011;13851;43.434;28.338;2022-10-17T12:15:36;6.03;;;2.90;;
26086;SDS011;13851;43.434;28.338;2022-10-17T12:17:43;4.15;;;3.00;;
26086;SDS011;13851;43.434;28.338;2022-10-17T12:22:47;6.85;;;3.38;;
26086;SDS011;13851;43.434;28.338;2022-10-17T12:25:18;4.85;;;2.88;;
26086;SDS011;13851;43.434;28.338;2022-10-17T12:27:50;4.90;;;3.10;;
26086;SDS011;13851;43.434;28.338;2022-10-17T12:30:26;7.35;;;3.35;;
26086;SDS011;13851;43.434;28.338;2022-10-17T12:35:36;8.48;;;3.20;;
26086;SDS011;13851;43.434;28.338;2022-10-17T12:43:31;7.30;;;3.35;;
26086;SDS011;13851;43.434;28.338;2022-10-17T12:45:57;6.43;;;3.33;;
26086;SDS011;13851;43.434;28.338;2022-10-17T12:56:14;6.40;;;2.88;;
26086;SDS011;13851;43.434;28.338;2022-10-17T12:58:47;4.85;;;2.88;;
26086;SDS011;13851;43.434;28.338;2022-10-17T13:01:26;8.30;;;2.78;;
26086;SDS011;13851;43.434;28.338;2022-10-17T13:03:55;6.10;;;2.90;;
26086;SDS011;13851;43.434;28.338;2022-10-17T13:06:28;7.55;;;3.55;;
26086;SDS011;13851;43.434;28.338;2022-10-17T13:08:57;6.07;;;3.67;;
26086;SDS011;13851;43.434;28.338;2022-10-17T13:11:29;6.93;;;3.67;;
26086;SDS011;13851;43.434;28.338;2022-10-17T13:13:58;4.57;;;2.90;;
26086;SDS011;13851;43.434;28.338;2022-10-17T13:16:27;4.10;;;3.15;;
26086;SDS011;13851;43.434;28.338;2022-10-17T13:19:00;9.82;;;3.40;;
26086;SDS011;13851;43.434;28.338;2022-10-17T13:21:27;7.90;;;3.10;;
26086;SDS011;13851;43.434;28.338;2022-10-17T13:23:53;3.50;;;3.13;;
26086;SDS011;13851;43.434;28.338;2022-10-17T13:26:26;5.55;;;3.30;;
26086;SDS011;13851;43.434;28.338;2022-10-17T13:29:05;5.82;;;3.28;;
26086;SDS011;13851;43.434;28.338;2022-10-17T13:31:36;7.20;;;3.65;;
26086;SDS011;13851;43.434;28.338;2022-10-17T13:34:04;5.72;;;3.33;;
26086;SDS011;13851;43.434;28.338;2022-10-17T13:36:38;6.47;;;3.90;;
26086;SDS011;13851;43.434;28.338;2022-10-17T13:39:09;6.82;;;3.28;;
26086;SDS011;13851;43.434;28.338;2022-10-17T13:41:39;5.57;;;3.85;;
26086;SDS011;13851;43.434;28.338;2022-10-17T13:44:09;8.05;;;4.05;;
26086;SDS011;13851;43.434;28.338;2022-10-17T13:46:38;8.13;;;3.97;;
26086;SDS011;13851;43.434;28.338;2022-10-17T13:52:05;6.68;;;3.90;;
26086;SDS011;13851;43.434;28.338;2022-10-17T13:54:42;12.15;;;4.03;;
26086;SDS011;13851;43.434;28.338;2022-10-17T13:57:17;7.30;;;4.43;;
26086;SDS011;13851;43.434;28.338;2022-10-17T13:59:48;8.02;;;4.53;;
26086;SDS011;13851;43.434;28.338;2022-10-17T14:02:16;6.22;;;4.07;;
26086;SDS011;13851;43.434;28.338;2022-10-17T14:04:45;7.25;;;5.28;;
26086;SDS011;13851;43.434;28.338;2022-10-17T14:07:22;10.38;;;4.60;;
26086;SDS011;13851;43.434;28.338;2022-10-17T14:09:52;9.45;;;4.57;;
26086;SDS011;13851;43.434;28.338;2022-10-17T14:12:18;8.38;;;4.30;;
26086;SDS011;13851;43.434;28.338;2022-10-17T14:14:46;7.55;;;4.20;;
26086;SDS011;13851;43.434;28.338;2022-10-17T14:17:24;6.22;;;3.80;;
26086;SDS011;13851;43.434;28.338;2022-10-17T14:20:01;5.78;;;3.88;;
26086;SDS011;13851;43.434;28.338;2022-10-17T14:22:28;6.40;;;4.75;;
26086;SDS011;13851;43.434;28.338;2022-10-17T14:25:00;5.97;;;3.90;;
26086;SDS011;13851;43.434;28.338;2022-10-17T14:29:59;5.97;;;3.90;;
26086;SDS011;13851;43.434;28.338;2022-10-17T14:32:29;4.75;;;3.53;;
26086;SDS011;13851;43.434;28.338;2022-10-17T14:35:01;9.43;;;3.95;;
26086;SDS011;13851;43.434;28.338;2022-10-17T14:40:19;5.22;;;3.90;;
26086;SDS011;13851;43.434;28.338;2022-10-17T14:42:50;5.57;;;3.63;;
26086;SDS011;13851;43.434;28.338;2022-10-17T14:47:55;5.80;;;4.07;;
26086;SDS011;13851;43.434;28.338;2022-10-17T14:53:21;7.03;;;3.90;;
26086;SDS011;13851;43.434;28.338;2022-10-17T14:55:56;6.15;;;3.92;;
26086;SDS011;13851;43.434;28.338;2022-10-17T14:58:26;4.95;;;3.55;;
26086;SDS011;13851;43.434;28.338;2022-10-17T15:00:54;6.60;;;3.97;;
26086;SDS011;13851;43.434;28.338;2022-10-17T15:03:20;8.05;;;3.97;;
26086;SDS011;13851;43.434;28.338;2022-10-17T15:05:46;4.30;;;3.83;;
26086;SDS011;13851;43.434;28.338;2022-10-17T15:08:13;6.03;;;4.50;;
26086;SDS011;13851;43.434;28.338;2022-10-17T15:10:40;5.88;;;4.03;;
26086;SDS011;13851;43.434;28.338;2022-10-17T15:13:07;10.77;;;4.20;;
26086;SDS011;13851;43.434;28.338;2022-10-17T15:15:34;4.63;;;4.10;;
26086;SDS011;13851;43.434;28.338;2022-10-17T15:18:01;7.15;;;4.28;;
26086;SDS011;13851;43.434;28.338;2022-10-17T15:20:26;7.13;;;4.30;;
26086;SDS011;13851;43.434;28.338;2022-10-17T15:22:55;10.77;;;4.72;;
26086;SDS011;13851;43.434;28.338;2022-10-17T15:25:22;8.07;;;4.85;;
26086;SDS011;13851;43.434;28.338;2022-10-17T15:27:48;7.80;;;5.22;;
26086;SDS011;13851;43.434;28.338;2022-10-17T15:30:18;82.30;;;13.30;;
26086;SDS011;13851;43.434;28.338;2022-10-17T15:32:46;6.05;;;4.60;;
26086;SDS011;13851;43.434;28.338;2022-10-17T15:35:12;7.18;;;5.47;;
26086;SDS011;13851;43.434;28.338;2022-10-17T15:37:38;7.38;;;5.45;;
26086;SDS011;13851;43.434;28.338;2022-10-17T15:40:04;8.20;;;4.90;;
26086;SDS011;13851;43.434;28.338;2022-10-17T15:42:30;9.57;;;4.85;;
26086;SDS011;13851;43.434;28.338;2022-10-17T15:44:56;9.32;;;5.07;;
26086;SDS011;13851;43.434;28.338;2022-10-17T15:47:30;7.68;;;4.88;;
26086;SDS011;13851;43.434;28.338;2022-10-17T15:50:00;9.73;;;5.22;;
26086;SDS011;13851;43.434;28.338;2022-10-17T15:52:26;11.30;;;5.25;;
26086;SDS011;13851;43.434;28.338;2022-10-17T15:54:52;6.30;;;5.65;;
26086;SDS011;13851;43.434;28.338;2022-10-17T15:57:20;6.38;;;4.90;;
26086;SDS011;13851;43.434;28.338;2022-10-17T15:59:50;7.95;;;5.18;;
26086;SDS011;13851;43.434;28.338;2022-10-17T16:02:17;11.52;;;6.10;;
26086;SDS011;13851;43.434;28.338;2022-10-17T16:04:44;8.57;;;4.90;;
26086;SDS011;13851;43.434;28.338;2022-10-17T16:07:14;9.57;;;4.93;;
26086;SDS011;13851;43.434;28.338;2022-10-17T16:09:40;5.95;;;4.80;;
26086;SDS011;13851;43.434;28.338;2022-10-17T16:12:09;6.13;;;5.03;;
26086;SDS011;13851;43.434;28.338;2022-10-17T16:14:38;9.68;;;5.15;;
26086;SDS011;13851;43.434;28.338;2022-10-17T16:17:08;10.77;;;8.15;;
26086;SDS011;13851;43.434;28.338;2022-10-17T16:22:02;14.07;;;6.82;;
26086;SDS011;13851;43.434;28.338;2022-10-17T16:24:32;7.45;;;5.38;;
26086;SDS011;13851;43.434;28.338;2022-10-17T16:26:58;8.90;;;5.38;;
26086;SDS011;13851;43.434;28.338;2022-10-17T16:29:23;6.28;;;4.90;;
26086;SDS011;13851;43.434;28.338;2022-10-17T16:31:49;7.60;;;5.05;;
26086;SDS011;13851;43.434;28.338;2022-10-17T16:34:14;11.20;;;5.68;;
26086;SDS011;13851;43.434;28.338;2022-10-17T16:36:40;6.70;;;5.25;;
26086;SDS011;13851;43.434;28.338;2022-10-17T16:39:06;10.10;;;5.45;;
26086;SDS011;13851;43.434;28.338;2022-10-17T16:41:33;7.88;;;5.47;;
26086;SDS011;13851;43.434;28.338;2022-10-17T16:44:02;12.00;;;5.93;;
26086;SDS011;13851;43.434;28.338;2022-10-17T16:46:30;14.45;;;6.30;;
26086;SDS011;13851;43.434;28.338;2022-10-17T16:48:56;9.70;;;5.72;;
26086;SDS011;13851;43.434;28.338;2022-10-17T16:51:27;10.65;;;5.95;;
26086;SDS011;13851;43.434;28.338;2022-10-17T16:53:53;10.27;;;5.60;;
26086;SDS011;13851;43.434;28.338;2022-10-17T16:56:21;12.18;;;5.60;;
26086;SDS011;13851;43.434;28.338;2022-10-17T16:58:48;11.23;;;5.97;;
26086;SDS011;13851;43.434;28.338;2022-10-17T17:01:20;9.57;;;5.93;;
26086;SDS011;13851;43.434;28.338;2022-10-17T17:03:47;10.13;;;5.50;;
26086;SDS011;13851;43.434;28.338;2022-10-17T17:06:14;8.18;;;5.53;;
26086;SDS011;13851;43.434;28.338;2022-10-17T17:08:42;8.63;;;5.60;;
26086;SDS011;13851;43.434;28.338;2022-10-17T17:11:09;9.95;;;5.50;;
26086;SDS011;13851;43.434;28.338;2022-10-17T17:13:36;8.38;;;5.72;;
26086;SDS011;13851;43.434;28.338;2022-10-17T17:16:09;8.32;;;5.47;;
26086;SDS011;13851;43.434;28.338;2022-10-17T17:18:38;8.82;;;5.85;;
26086;SDS011;13851;43.434;28.338;2022-10-17T17:21:05;10.10;;;6.13;;
26086;SDS011;13851;43.434;28.338;2022-10-17T17:23:33;7.95;;;5.47;;
26086;SDS011;13851;43.434;28.338;2022-10-17T17:26:04;7.72;;;5.80;;
26086;SDS011;13851;43.434;28.338;2022-10-17T17:28:31;8.05;;;5.43;;
26086;SDS011;13851;43.434;28.338;2022-10-17T17:30:58;7.07;;;5.70;;
26086;SDS011;13851;43.434;28.338;2022-10-17T17:33:23;9.80;;;5.90;;
26086;SDS011;13851;43.434;28.338;2022-10-17T17:35:54;8.80;;;5.85;;
26086;SDS011;13851;43.434;28.338;2022-10-17T17:38:20;7.25;;;5.40;;
26086;SDS011;13851;43.434;28.338;2022-10-17T17:40:46;8.52;;;5.60;;
26086;SDS011;13851;43.434;28.338;2022-10-17T17:43:12;8.95;;;5.97;;
26086;SDS011;13851;43.434;28.338;2022-10-17T17:45:38;10.57;;;6.43;;
26086;SDS011;13851;43.434;28.338;2022-10-17T17:48:03;9.35;;;6.25;;
26086;SDS011;13851;43.434;28.338;2022-10-17T17:50:29;10.70;;;5.55;;
26086;SDS011;13851;43.434;28.338;2022-10-17T17:52:54;7.72;;;5.63;;
26086;SDS011;13851;43.434;28.338;2022-10-17T17:55:20;7.80;;;5.65;;
26086;SDS011;13851;43.434;28.338;2022-10-17T17:57:45;9.40;;;5.65;;
26086;SDS011;13851;43.434;28.338;2022-10-17T18:00:11;8.90;;;6.13;;
26086;SDS011;13851;43.434;28.338;2022-10-17T18:02:37;12.05;;;6.25;;
26086;SDS011;13851;43.434;28.338;2022-10-17T18:05:03;8.85;;;5.90;;
26086;SDS011;13851;43.434;28.338;2022-10-17T18:07:31;10.75;;;6.13;;
26086;SDS011;13851;43.434;28.338;2022-10-17T18:09:57;7.45;;;5.45;;
26086;SDS011;13851;43.434;28.338;2022-10-17T18:12:23;9.35;;;5.82;;
26086;SDS011;13851;43.434;28.338;2022-10-17T18:14:51;7.18;;;5.45;;
26086;SDS011;13851;43.434;28.338;2022-10-17T18:17:17;8.80;;;5.93;;
26086;SDS011;13851;43.434;28.338;2022-10-17T18:19:42;10.18;;;6.05;;
26086;SDS011;13851;43.434;28.338;2022-10-17T18:22:08;8.77;;;6.10;;
26086;SDS011;13851;43.434;28.338;2022-10-17T18:24:34;9.65;;;6.82;;
26086;SDS011;13851;43.434;28.338;2022-10-17T18:27:00;10.18;;;7.05;;
26086;SDS011;13851;43.434;28.338;2022-10-17T18:29:25;11.80;;;7.35;;
26086;SDS011;13851;43.434;28.338;2022-10-17T18:31:51;12.60;;;8.25;;
26086;SDS011;13851;43.434;28.338;2022-10-17T18:34:17;11.25;;;8.30;;
26086;SDS011;13851;43.434;28.338;2022-10-17T18:36:43;11.35;;;9.38;;
26086;SDS011;13851;43.434;28.338;2022-10-17T18:39:08;10.80;;;7.93;;
26086;SDS011;13851;43.434;28.338;2022-10-17T18:41:36;8.82;;;7.47;;
26086;SDS011;13851;43.434;28.338;2022-10-17T18:44:02;10.93;;;7.55;;
26086;SDS011;13851;43.434;28.338;2022-10-17T18:46:29;9.60;;;6.90;;
26086;SDS011;13851;43.434;28.338;2022-10-17T18:49:05;10.35;;;6.57;;
26086;SDS011;13851;43.434;28.338;2022-10-17T18:51:32;9.88;;;5.93;;
26086;SDS011;13851;43.434;28.338;2022-10-17T18:53:57;8.85;;;6.63;;
26086;SDS011;13851;43.434;28.338;2022-10-17T18:56:23;8.18;;;6.05;;
26086;SDS011;13851;43.434;28.338;2022-10-17T18:58:50;9.15;;;5.78;;
26086;SDS011;13851;43.434;28.338;2022-10-17T19:01:19;9.05;;;5.53;;
26086;SDS011;13851;43.434;28.338;2022-10-17T19:03:47;11.32;;;5.95;;
26086;SDS011;13851;43.434;28.338;2022-10-17T19:06:15;8.23;;;5.80;;
26086;SDS011;13851;43.434;28.338;2022-10-17T19:08:44;9.23;;;6.30;;